Share

Moose Lake, MN (55767)

Located on Coffee Lake. (KMNMOOSE1) Elev 1050 ft | 46.43 °N, 92.78 °W | Change Station

Current weather conditions updated 3 seconds ago

Overcast
Overcast
34.3 °F
Feels Like 26 °F
N
11.0
Wind Variable Wind from NNW
Gusts 11.4 mph
Sunrise 6:20 AM
Sunset 8:01 PM
Moon Waning Gibbous

Today is forecast to be Much Warmer than yesterday.

Pressure 30.21 in
Visibility 10.0 miles
Clouds Overcast 1700 ft
Windchill 26 °F
Dew Point 26 °F
Humidity 73%
Rainfall 0.00 in
Snow Depth Not available.
UV 2 out of 16
Pollen 2.80 out of 12
Air Quality Not available.
Flu Activity Sporadic
METAR KMZH 171635Z AUTO 34008KT 312V032 10SM OVC017 00/M04 A3021 RMK AO2

More Conditions Fewer Conditions

Pressure 30.21 in
Visibility 10.0 miles
Clouds Overcast 1700 ft
Windchill 26 °F
Dew Point 26 °F
Humidity 73%
Rainfall 0.00 in
Snow Depth Not available.
UV 2 out of 16
Pollen 2.80 out of 12
Air Quality Not available.
Flu Activity Sporadic
METAR KMZH 171635Z AUTO 34008KT 312V032 10SM OVC017 00/M04 A3021 RMK AO2

More Conditions Fewer Conditions

10-Day Forecast

Almanac

Astronomy

Apr. 17, 2014 Rise Set
Actual Time 6:20 AM CDT 8:01 PM CDT
Civil Twilight 5:48 AM CDT 8:33 PM CDT
Nautical Twilight 5:10 AM CDT 9:12 PM CDT
Astronomical Twilight 4:28 AM CDT 9:54 PM CDT
Moon 10:55 PM CDT 7:46 AM CDT
Length of Visible Light 14h 44m
Length of Day
13h 41m
Tomorrow will be 3m 9s longer.
Waning Gibbous, 93% of the Moon is Illuminated
Today
Waning Gibbous
Apr 22
Last Quarter
Apr 29
New
May 6
First Quarter
May 14
Full

Today's Extremes

State Highs State Lows

Community

  • New Day
    New Day
  • Lake Michigan Sunrise
    Lake Michigan Sunrise
  • sunset from izmir, narlıdere
    sunset from izmir, narlıdere
  • oregon cherry
    oregon cherry
  • Sunset over the Bay
    Sunset over the Bay

WunderPhotos

Upload Photos

1,702,067 photos uploaded!

Nearby

Snow Depth

Station Depth Elevation
No new snow has been reported.

Coastal Water Temperatures

Place Temperature
No Stations Reporting

Earthquake Activity

City Distance Mag. Time & Date
No recent earthquake activity has been reported nearby.
Minimum magnitude displayed is 2.5.

Nearby Weather Stations

Station Location Temp. Windchill Dew Point Humidity Wind Precip. Elev Updated Type
Located on Coffee Lake., Moose Lake, MN 34.3 °F 26 °F 26 °F 73% NNW  at  11.0 mph 0.00 in / hr 1050 ft 11:50 AM CDT Rapid Fire
Coffee Lake, Moose Lake Twp., MN 34.0 °F 26 °F 23 °F 63% NNW  at  11.4 mph 0.00 in / hr 1050 ft 11:50 AM CDT Rapid Fire
RAWS MOOSE LAKE MN, Moose Lake, MN 31 °F 24 °F 29 °F 93% NNW  at  8 mph 0.00 in / hr 1069 ft 11:08 AM CDT MADIS

Show More Stations Show Fewer Stations

What do you think?

We're not finished. Please let us know what you like, what you don't like, and what you are still missing.